sensor_id;sensor_type;location;lat;lon;timestamp;P1;durP1;ratioP1;P2;durP2;ratioP2
59038;SDS011;44824;43.376;19.630;2022-12-08T00:02:04;52.27;;;34.23;;
59038;SDS011;44824;43.376;19.630;2022-12-08T00:04:30;49.13;;;34.92;;
59038;SDS011;44824;43.376;19.630;2022-12-08T00:07:16;52.05;;;35.63;;
59038;SDS011;44824;43.376;19.630;2022-12-08T00:10:01;59.10;;;38.10;;
59038;SDS011;44824;43.376;19.630;2022-12-08T00:12:27;59.35;;;38.85;;
59038;SDS011;44824;43.376;19.630;2022-12-08T00:15:05;61.80;;;39.38;;
59038;SDS011;44824;43.376;19.630;2022-12-08T00:17:32;59.95;;;39.58;;
59038;SDS011;44824;43.376;19.630;2022-12-08T00:19:58;55.88;;;37.90;;
59038;SDS011;44824;43.376;19.630;2022-12-08T00:22:24;60.95;;;40.58;;
59038;SDS011;44824;43.376;19.630;2022-12-08T00:24:50;60.90;;;40.53;;
59038;SDS011;44824;43.376;19.630;2022-12-08T00:27:19;55.80;;;38.88;;
59038;SDS011;44824;43.376;19.630;2022-12-08T00:29:45;58.22;;;40.28;;
59038;SDS011;44824;43.376;19.630;2022-12-08T00:32:12;62.08;;;37.95;;
59038;SDS011;44824;43.376;19.630;2022-12-08T00:34:56;52.17;;;34.97;;
59038;SDS011;44824;43.376;19.630;2022-12-08T00:37:50;46.03;;;32.20;;
59038;SDS011;44824;43.376;19.630;2022-12-08T00:40:42;46.78;;;32.42;;
59038;SDS011;44824;43.376;19.630;2022-12-08T00:43:17;55.33;;;33.13;;
59038;SDS011;44824;43.376;19.630;2022-12-08T00:45:46;47.08;;;32.50;;
59038;SDS011;44824;43.376;19.630;2022-12-08T00:48:12;54.42;;;35.15;;
59038;SDS011;44824;43.376;19.630;2022-12-08T00:50:38;57.92;;;36.10;;
59038;SDS011;44824;43.376;19.630;2022-12-08T00:53:04;55.28;;;37.70;;
59038;SDS011;44824;43.376;19.630;2022-12-08T00:55:30;68.15;;;42.55;;
59038;SDS011;44824;43.376;19.630;2022-12-08T00:57:56;68.80;;;44.30;;
59038;SDS011;44824;43.376;19.630;2022-12-08T01:00:35;65.45;;;42.67;;
59038;SDS011;44824;43.376;19.630;2022-12-08T01:03:01;62.35;;;39.63;;
59038;SDS011;44824;43.376;19.630;2022-12-08T01:05:30;70.80;;;43.45;;
59038;SDS011;44824;43.376;19.630;2022-12-08T01:08:00;69.78;;;41.90;;
59038;SDS011;44824;43.376;19.630;2022-12-08T01:10:28;81.07;;;49.03;;
59038;SDS011;44824;43.376;19.630;2022-12-08T01:12:55;65.85;;;43.78;;
59038;SDS011;44824;43.376;19.630;2022-12-08T01:15:39;71.40;;;43.58;;
59038;SDS011;44824;43.376;19.630;2022-12-08T01:18:05;65.30;;;42.15;;
59038;SDS011;44824;43.376;19.630;2022-12-08T01:20:31;68.18;;;43.05;;
59038;SDS011;44824;43.376;19.630;2022-12-08T01:22:57;66.55;;;42.35;;
59038;SDS011;44824;43.376;19.630;2022-12-08T01:25:23;65.60;;;40.95;;
59038;SDS011;44824;43.376;19.630;2022-12-08T01:27:50;56.40;;;36.78;;
59038;SDS011;44824;43.376;19.630;2022-12-08T01:36:08;68.53;;;43.10;;
59038;SDS011;44824;43.376;19.630;2022-12-08T01:38:35;60.83;;;39.47;;
59038;SDS011;44824;43.376;19.630;2022-12-08T01:41:01;60.30;;;37.42;;
59038;SDS011;44824;43.376;19.630;2022-12-08T01:43:50;58.42;;;37.42;;
59038;SDS011;44824;43.376;19.630;2022-12-08T01:46:35;57.67;;;36.03;;
59038;SDS011;44824;43.376;19.630;2022-12-08T01:54:33;69.10;;;36.63;;
59038;SDS011;44824;43.376;19.630;2022-12-08T01:57:13;65.97;;;37.85;;
59038;SDS011;44824;43.376;19.630;2022-12-08T01:59:42;61.60;;;36.75;;
59038;SDS011;44824;43.376;19.630;2022-12-08T02:05:09;61.08;;;37.17;;
59038;SDS011;44824;43.376;19.630;2022-12-08T02:07:35;59.95;;;37.13;;
59038;SDS011;44824;43.376;19.630;2022-12-08T02:10:02;65.97;;;39.63;;
59038;SDS011;44824;43.376;19.630;2022-12-08T02:12:28;63.88;;;37.35;;
59038;SDS011;44824;43.376;19.630;2022-12-08T02:14:55;66.20;;;38.80;;
59038;SDS011;44824;43.376;19.630;2022-12-08T02:37:49;74.72;;;45.92;;
59038;SDS011;44824;43.376;19.630;2022-12-08T02:42:46;81.28;;;46.53;;
59038;SDS011;44824;43.376;19.630;2022-12-08T02:45:15;74.63;;;45.83;;
59038;SDS011;44824;43.376;19.630;2022-12-08T02:50:45;77.63;;;47.03;;
59038;SDS011;44824;43.376;19.630;2022-12-08T02:53:11;74.93;;;46.75;;
59038;SDS011;44824;43.376;19.630;2022-12-08T03:06:32;86.28;;;51.88;;
59038;SDS011;44824;43.376;19.630;2022-12-08T03:09:06;86.22;;;50.85;;
59038;SDS011;44824;43.376;19.630;2022-12-08T03:14:07;86.10;;;49.42;;
59038;SDS011;44824;43.376;19.630;2022-12-08T03:19:22;84.03;;;43.92;;
59038;SDS011;44824;43.376;19.630;2022-12-08T03:21:49;79.53;;;47.70;;
59038;SDS011;44824;43.376;19.630;2022-12-08T03:29:08;79.95;;;47.10;;
59038;SDS011;44824;43.376;19.630;2022-12-08T03:34:37;79.65;;;47.42;;
59038;SDS011;44824;43.376;19.630;2022-12-08T03:37:06;82.95;;;50.50;;
59038;SDS011;44824;43.376;19.630;2022-12-08T03:39:32;84.07;;;51.45;;
59038;SDS011;44824;43.376;19.630;2022-12-08T03:41:58;82.22;;;50.08;;
59038;SDS011;44824;43.376;19.630;2022-12-08T03:44:24;96.20;;;50.97;;
59038;SDS011;44824;43.376;19.630;2022-12-08T03:46:54;75.75;;;46.22;;
59038;SDS011;44824;43.376;19.630;2022-12-08T03:49:20;70.75;;;42.95;;
59038;SDS011;44824;43.376;19.630;2022-12-08T03:51:46;61.75;;;38.33;;
59038;SDS011;44824;43.376;19.630;2022-12-08T03:54:12;54.30;;;35.00;;
59038;SDS011;44824;43.376;19.630;2022-12-08T03:56:38;52.30;;;31.13;;
59038;SDS011;44824;43.376;19.630;2022-12-08T03:59:05;44.15;;;27.77;;
59038;SDS011;44824;43.376;19.630;2022-12-08T04:01:40;48.80;;;29.95;;
59038;SDS011;44824;43.376;19.630;2022-12-08T04:04:06;38.88;;;25.75;;
59038;SDS011;44824;43.376;19.630;2022-12-08T04:06:32;43.75;;;25.88;;
59038;SDS011;44824;43.376;19.630;2022-12-08T04:08:59;35.45;;;23.30;;
59038;SDS011;44824;43.376;19.630;2022-12-08T04:11:25;38.15;;;24.05;;
59038;SDS011;44824;43.376;19.630;2022-12-08T04:13:51;32.58;;;20.45;;
59038;SDS011;44824;43.376;19.630;2022-12-08T04:16:18;31.92;;;19.85;;
59038;SDS011;44824;43.376;19.630;2022-12-08T04:18:45;30.40;;;19.60;;
59038;SDS011;44824;43.376;19.630;2022-12-08T04:21:11;31.67;;;19.37;;
59038;SDS011;44824;43.376;19.630;2022-12-08T04:23:37;33.00;;;18.17;;
59038;SDS011;44824;43.376;19.630;2022-12-08T04:26:04;27.52;;;18.02;;
59038;SDS011;44824;43.376;19.630;2022-12-08T04:28:30;31.65;;;17.67;;
59038;SDS011;44824;43.376;19.630;2022-12-08T04:30:56;22.13;;;13.93;;
59038;SDS011;44824;43.376;19.630;2022-12-08T04:36:12;22.42;;;13.68;;
59038;SDS011;44824;43.376;19.630;2022-12-08T04:38:39;24.92;;;13.55;;
59038;SDS011;44824;43.376;19.630;2022-12-08T04:41:05;24.02;;;13.80;;
59038;SDS011;44824;43.376;19.630;2022-12-08T04:43:31;18.60;;;12.27;;
59038;SDS011;44824;43.376;19.630;2022-12-08T04:45:57;27.10;;;12.38;;
59038;SDS011;44824;43.376;19.630;2022-12-08T04:51:14;22.38;;;12.27;;
59038;SDS011;44824;43.376;19.630;2022-12-08T04:53:41;22.13;;;11.48;;
59038;SDS011;44824;43.376;19.630;2022-12-08T04:56:14;24.85;;;12.13;;
59038;SDS011;44824;43.376;19.630;2022-12-08T04:58:40;19.50;;;11.90;;
59038;SDS011;44824;43.376;19.630;2022-12-08T05:01:06;25.30;;;12.60;;
59038;SDS011;44824;43.376;19.630;2022-12-08T05:03:32;17.98;;;10.88;;
59038;SDS011;44824;43.376;19.630;2022-12-08T05:05:58;17.00;;;9.93;;
59038;SDS011;44824;43.376;19.630;2022-12-08T05:08:25;19.00;;;10.40;;
59038;SDS011;44824;43.376;19.630;2022-12-08T05:10:51;20.50;;;10.25;;
59038;SDS011;44824;43.376;19.630;2022-12-08T05:13:17;18.92;;;10.00;;
59038;SDS011;44824;43.376;19.630;2022-12-08T05:15:43;18.50;;;9.77;;
59038;SDS011;44824;43.376;19.630;2022-12-08T05:18:12;21.42;;;10.95;;
59038;SDS011;44824;43.376;19.630;2022-12-08T05:20:39;19.88;;;11.45;;
59038;SDS011;44824;43.376;19.630;2022-12-08T05:23:05;19.65;;;11.93;;
59038;SDS011;44824;43.376;19.630;2022-12-08T05:25:31;24.45;;;12.95;;
59038;SDS011;44824;43.376;19.630;2022-12-08T05:27:57;26.75;;;13.65;;
59038;SDS011;44824;43.376;19.630;2022-12-08T05:30:24;22.95;;;12.45;;
59038;SDS011;44824;43.376;19.630;2022-12-08T05:35:47;24.73;;;12.95;;
59038;SDS011;44824;43.376;19.630;2022-12-08T05:38:13;23.70;;;12.10;;
59038;SDS011;44824;43.376;19.630;2022-12-08T05:40:39;18.77;;;11.15;;
59038;SDS011;44824;43.376;19.630;2022-12-08T05:43:08;15.85;;;10.63;;
59038;SDS011;44824;43.376;19.630;2022-12-08T05:45:35;21.80;;;12.05;;
59038;SDS011;44824;43.376;19.630;2022-12-08T05:48:01;23.60;;;12.98;;
59038;SDS011;44824;43.376;19.630;2022-12-08T05:50:27;21.83;;;11.70;;
59038;SDS011;44824;43.376;19.630;2022-12-08T05:52:53;22.90;;;11.48;;
59038;SDS011;44824;43.376;19.630;2022-12-08T05:55:19;22.42;;;11.15;;
59038;SDS011;44824;43.376;19.630;2022-12-08T05:57:45;16.75;;;10.18;;
59038;SDS011;44824;43.376;19.630;2022-12-08T06:00:12;20.25;;;10.15;;
59038;SDS011;44824;43.376;19.630;2022-12-08T06:02:38;21.97;;;12.40;;
59038;SDS011;44824;43.376;19.630;2022-12-08T06:05:04;23.30;;;11.88;;
59038;SDS011;44824;43.376;19.630;2022-12-08T06:07:30;22.02;;;12.73;;
59038;SDS011;44824;43.376;19.630;2022-12-08T06:09:56;21.70;;;11.35;;
59038;SDS011;44824;43.376;19.630;2022-12-08T06:12:22;22.85;;;11.18;;
59038;SDS011;44824;43.376;19.630;2022-12-08T06:14:48;23.08;;;11.68;;
59038;SDS011;44824;43.376;19.630;2022-12-08T06:17:15;19.85;;;10.82;;
59038;SDS011;44824;43.376;19.630;2022-12-08T06:19:41;21.70;;;10.88;;
59038;SDS011;44824;43.376;19.630;2022-12-08T06:22:19;22.10;;;11.88;;
59038;SDS011;44824;43.376;19.630;2022-12-08T06:24:45;23.15;;;11.65;;
59038;SDS011;44824;43.376;19.630;2022-12-08T06:27:14;27.92;;;12.10;;
59038;SDS011;44824;43.376;19.630;2022-12-08T06:29:40;23.50;;;10.43;;
59038;SDS011;44824;43.376;19.630;2022-12-08T06:32:10;22.60;;;11.05;;
59038;SDS011;44824;43.376;19.630;2022-12-08T06:34:36;34.58;;;12.95;;
59038;SDS011;44824;43.376;19.630;2022-12-08T06:37:02;29.73;;;13.32;;
59038;SDS011;44824;43.376;19.630;2022-12-08T06:39:28;22.98;;;11.75;;
59038;SDS011;44824;43.376;19.630;2022-12-08T06:41:54;20.52;;;12.20;;
59038;SDS011;44824;43.376;19.630;2022-12-08T06:44:39;29.42;;;10.43;;
59038;SDS011;44824;43.376;19.630;2022-12-08T06:47:05;17.70;;;9.75;;
59038;SDS011;44824;43.376;19.630;2022-12-08T06:49:40;17.05;;;9.45;;
59038;SDS011;44824;43.376;19.630;2022-12-08T06:52:06;22.77;;;9.68;;
59038;SDS011;44824;43.376;19.630;2022-12-08T06:54:32;20.92;;;11.23;;
59038;SDS011;44824;43.376;19.630;2022-12-08T06:56:58;21.85;;;12.18;;
59038;SDS011;44824;43.376;19.630;2022-12-08T06:59:24;23.83;;;13.50;;
59038;SDS011;44824;43.376;19.630;2022-12-08T07:01:51;22.77;;;14.63;;
59038;SDS011;44824;43.376;19.630;2022-12-08T07:07:54;36.58;;;22.60;;
59038;SDS011;44824;43.376;19.630;2022-12-08T07:10:26;35.45;;;21.10;;
59038;SDS011;44824;43.376;19.630;2022-12-08T07:13:00;34.97;;;22.90;;
59038;SDS011;44824;43.376;19.630;2022-12-08T07:27:45;44.28;;;25.70;;
59038;SDS011;44824;43.376;19.630;2022-12-08T07:30:12;47.65;;;29.73;;
59038;SDS011;44824;43.376;19.630;2022-12-08T07:32:38;75.00;;;45.13;;
59038;SDS011;44824;43.376;19.630;2022-12-08T07:37:59;55.47;;;38.88;;
59038;SDS011;44824;43.376;19.630;2022-12-08T07:40:25;65.70;;;44.65;;
59038;SDS011;44824;43.376;19.630;2022-12-08T07:42:51;141.75;;;93.78;;
59038;SDS011;44824;43.376;19.630;2022-12-08T07:45:20;57.38;;;36.65;;
59038;SDS011;44824;43.376;19.630;2022-12-08T08:41:20;27.80;;;23.48;;
59038;SDS011;44824;43.376;19.630;2022-12-08T08:43:58;36.53;;;22.02;;
59038;SDS011;44824;43.376;19.630;2022-12-08T09:02:02;23.88;;;16.98;;
59038;SDS011;44824;43.376;19.630;2022-12-08T09:07:58;43.75;;;29.23;;
59038;SDS011;44824;43.376;19.630;2022-12-08T09:10:24;46.20;;;31.77;;
59038;SDS011;44824;43.376;19.630;2022-12-08T09:15:27;31.42;;;22.48;;
59038;SDS011;44824;43.376;19.630;2022-12-08T09:24:04;37.45;;;26.52;;
59038;SDS011;44824;43.376;19.630;2022-12-08T09:26:30;32.13;;;21.83;;
59038;SDS011;44824;43.376;19.630;2022-12-08T09:31:59;55.85;;;37.75;;
59038;SDS011;44824;43.376;19.630;2022-12-08T09:37:31;38.10;;;24.27;;
59038;SDS011;44824;43.376;19.630;2022-12-08T09:39:57;49.13;;;39.85;;
59038;SDS011;44824;43.376;19.630;2022-12-08T09:45:32;32.05;;;21.40;;
59038;SDS011;44824;43.376;19.630;2022-12-08T09:51:24;36.17;;;21.48;;
59038;SDS011;44824;43.376;19.630;2022-12-08T09:53:55;40.22;;;25.08;;
59038;SDS011;44824;43.376;19.630;2022-12-08T09:56:23;32.47;;;23.52;;
59038;SDS011;44824;43.376;19.630;2022-12-08T10:01:30;39.50;;;23.98;;
59038;SDS011;44824;43.376;19.630;2022-12-08T10:03:56;38.13;;;26.33;;
59038;SDS011;44824;43.376;19.630;2022-12-08T10:14:39;42.15;;;30.25;;
59038;SDS011;44824;43.376;19.630;2022-12-08T10:17:19;38.85;;;26.83;;
59038;SDS011;44824;43.376;19.630;2022-12-08T10:19:48;39.78;;;24.98;;
59038;SDS011;44824;43.376;19.630;2022-12-08T10:22:19;42.08;;;29.60;;
59038;SDS011;44824;43.376;19.630;2022-12-08T10:25:32;38.25;;;26.60;;
59038;SDS011;44824;43.376;19.630;2022-12-08T10:27:33;37.67;;;27.35;;
59038;SDS011;44824;43.376;19.630;2022-12-08T10:30:09;49.47;;;30.98;;
59038;SDS011;44824;43.376;19.630;2022-12-08T10:32:35;47.15;;;30.55;;
59038;SDS011;44824;43.376;19.630;2022-12-08T10:35:20;49.78;;;33.00;;
59038;SDS011;44824;43.376;19.630;2022-12-08T10:37:59;85.15;;;57.90;;
59038;SDS011;44824;43.376;19.630;2022-12-08T10:40:26;57.65;;;39.13;;
59038;SDS011;44824;43.376;19.630;2022-12-08T10:42:56;131.75;;;85.97;;
59038;SDS011;44824;43.376;19.630;2022-12-08T10:50:27;72.85;;;50.13;;
59038;SDS011;44824;43.376;19.630;2022-12-08T10:53:01;93.82;;;60.50;;
59038;SDS011;44824;43.376;19.630;2022-12-08T10:55:27;89.10;;;60.38;;
59038;SDS011;44824;43.376;19.630;2022-12-08T11:03:32;50.78;;;35.30;;
59038;SDS011;44824;43.376;19.630;2022-12-08T11:11:52;54.90;;;36.83;;
59038;SDS011;44824;43.376;19.630;2022-12-08T11:16:51;49.70;;;33.90;;
59038;SDS011;44824;43.376;19.630;2022-12-08T11:19:19;53.65;;;33.50;;
59038;SDS011;44824;43.376;19.630;2022-12-08T11:21:45;62.47;;;36.42;;
59038;SDS011;44824;43.376;19.630;2022-12-08T11:26:47;60.85;;;38.60;;
59038;SDS011;44824;43.376;19.630;2022-12-08T11:29:14;60.78;;;36.97;;
59038;SDS011;44824;43.376;19.630;2022-12-08T11:31:55;67.18;;;41.33;;
59038;SDS011;44824;43.376;19.630;2022-12-08T11:34:26;57.05;;;37.95;;
59038;SDS011;44824;43.376;19.630;2022-12-08T11:37:03;76.05;;;52.83;;
59038;SDS011;44824;43.376;19.630;2022-12-08T11:39:30;90.22;;;56.58;;
59038;SDS011;44824;43.376;19.630;2022-12-08T11:46:57;70.53;;;48.70;;
59038;SDS011;44824;43.376;19.630;2022-12-08T11:49:35;113.10;;;84.40;;
59038;SDS011;44824;43.376;19.630;2022-12-08T11:54:56;47.33;;;33.53;;
59038;SDS011;44824;43.376;19.630;2022-12-08T11:57:23;52.95;;;35.88;;
59038;SDS011;44824;43.376;19.630;2022-12-08T11:59:50;60.63;;;45.20;;
59038;SDS011;44824;43.376;19.630;2022-12-08T12:02:19;57.15;;;40.13;;
59038;SDS011;44824;43.376;19.630;2022-12-08T12:04:48;41.65;;;28.92;;
59038;SDS011;44824;43.376;19.630;2022-12-08T12:17:47;28.38;;;19.38;;
59038;SDS011;44824;43.376;19.630;2022-12-08T12:20:17;25.85;;;16.58;;
59038;SDS011;44824;43.376;19.630;2022-12-08T12:22:45;30.02;;;17.83;;
59038;SDS011;44824;43.376;19.630;2022-12-08T12:25:17;14.73;;;7.70;;
59038;SDS011;44824;43.376;19.630;2022-12-08T12:27:44;12.88;;;6.40;;
59038;SDS011;44824;43.376;19.630;2022-12-08T12:30:21;22.25;;;13.05;;
59038;SDS011;44824;43.376;19.630;2022-12-08T12:32:50;18.05;;;11.10;;
59038;SDS011;44824;43.376;19.630;2022-12-08T12:35:36;18.10;;;10.20;;
59038;SDS011;44824;43.376;19.630;2022-12-08T12:38:07;18.00;;;10.75;;
59038;SDS011;44824;43.376;19.630;2022-12-08T12:41:00;16.63;;;9.93;;
59038;SDS011;44824;43.376;19.630;2022-12-08T12:43:28;16.60;;;8.65;;
59038;SDS011;44824;43.376;19.630;2022-12-08T12:48:44;15.98;;;8.80;;
59038;SDS011;44824;43.376;19.630;2022-12-08T12:54:21;12.00;;;5.63;;
59038;SDS011;44824;43.376;19.630;2022-12-08T12:56:47;15.35;;;6.32;;
59038;SDS011;44824;43.376;19.630;2022-12-08T13:08:06;10.15;;;5.68;;
59038;SDS011;44824;43.376;19.630;2022-12-08T13:10:46;8.93;;;3.60;;
59038;SDS011;44824;43.376;19.630;2022-12-08T13:13:17;10.95;;;5.10;;
59038;SDS011;44824;43.376;19.630;2022-12-08T13:18:23;13.48;;;4.57;;
59038;SDS011;44824;43.376;19.630;2022-12-08T13:36:10;15.70;;;8.38;;
59038;SDS011;44824;43.376;19.630;2022-12-08T13:38:38;24.25;;;13.15;;
59038;SDS011;44824;43.376;19.630;2022-12-08T13:41:06;19.88;;;12.48;;
59038;SDS011;44824;43.376;19.630;2022-12-08T13:44:10;23.35;;;16.27;;
59038;SDS011;44824;43.376;19.630;2022-12-08T13:46:36;12.52;;;7.32;;
59038;SDS011;44824;43.376;19.630;2022-12-08T13:49:04;14.75;;;9.20;;
59038;SDS011;44824;43.376;19.630;2022-12-08T13:51:39;11.27;;;5.95;;
59038;SDS011;44824;43.376;19.630;2022-12-08T13:56:51;14.65;;;8.95;;
59038;SDS011;44824;43.376;19.630;2022-12-08T14:01:44;11.65;;;5.70;;
59038;SDS011;44824;43.376;19.630;2022-12-08T14:04:18;12.65;;;8.15;;
59038;SDS011;44824;43.376;19.630;2022-12-08T14:06:45;17.45;;;10.48;;
59038;SDS011;44824;43.376;19.630;2022-12-08T14:09:13;12.63;;;7.25;;
59038;SDS011;44824;43.376;19.630;2022-12-08T14:11:44;19.13;;;10.73;;
59038;SDS011;44824;43.376;19.630;2022-12-08T14:14:16;22.63;;;13.10;;
59038;SDS011;44824;43.376;19.630;2022-12-08T14:16:47;21.08;;;12.38;;
59038;SDS011;44824;43.376;19.630;2022-12-08T14:19:18;23.70;;;13.57;;
59038;SDS011;44824;43.376;19.630;2022-12-08T14:24:39;14.30;;;7.45;;
59038;SDS011;44824;43.376;19.630;2022-12-08T14:27:06;9.18;;;4.18;;
59038;SDS011;44824;43.376;19.630;2022-12-08T14:29:48;17.13;;;9.48;;
59038;SDS011;44824;43.376;19.630;2022-12-08T14:32:23;29.83;;;18.75;;
59038;SDS011;44824;43.376;19.630;2022-12-08T14:34:55;24.92;;;16.30;;
59038;SDS011;44824;43.376;19.630;2022-12-08T14:45:07;31.85;;;19.17;;
59038;SDS011;44824;43.376;19.630;2022-12-08T14:47:52;51.13;;;37.25;;
59038;SDS011;44824;43.376;19.630;2022-12-08T14:50:37;22.10;;;14.23;;
59038;SDS011;44824;43.376;19.630;2022-12-08T14:53:11;26.02;;;15.27;;
59038;SDS011;44824;43.376;19.630;2022-12-08T14:55:38;30.08;;;17.48;;
59038;SDS011;44824;43.376;19.630;2022-12-08T14:58:05;24.90;;;16.83;;
59038;SDS011;44824;43.376;19.630;2022-12-08T15:00:31;31.02;;;15.02;;
59038;SDS011;44824;43.376;19.630;2022-12-08T15:02:57;32.35;;;19.05;;
59038;SDS011;44824;43.376;19.630;2022-12-08T15:05:25;32.88;;;21.05;;
59038;SDS011;44824;43.376;19.630;2022-12-08T15:07:55;34.13;;;18.88;;
59038;SDS011;44824;43.376;19.630;2022-12-08T15:10:25;33.17;;;21.27;;
59038;SDS011;44824;43.376;19.630;2022-12-08T15:15:28;22.92;;;14.43;;
59038;SDS011;44824;43.376;19.630;2022-12-08T15:23:18;28.75;;;18.75;;
59038;SDS011;44824;43.376;19.630;2022-12-08T15:25:45;48.10;;;30.00;;
59038;SDS011;44824;43.376;19.630;2022-12-08T15:28:11;51.65;;;31.40;;
59038;SDS011;44824;43.376;19.630;2022-12-08T15:30:38;51.15;;;31.63;;
59038;SDS011;44824;43.376;19.630;2022-12-08T15:33:05;47.85;;;30.70;;
59038;SDS011;44824;43.376;19.630;2022-12-08T15:35:31;31.30;;;19.98;;
59038;SDS011;44824;43.376;19.630;2022-12-08T15:38:09;27.10;;;14.27;;
59038;SDS011;44824;43.376;19.630;2022-12-08T15:40:44;52.63;;;27.05;;
59038;SDS011;44824;43.376;19.630;2022-12-08T15:43:10;38.60;;;21.08;;
59038;SDS011;44824;43.376;19.630;2022-12-08T15:45:37;40.95;;;23.70;;
59038;SDS011;44824;43.376;19.630;2022-12-08T15:48:04;42.17;;;24.98;;
59038;SDS011;44824;43.376;19.630;2022-12-08T15:50:38;38.47;;;23.90;;
59038;SDS011;44824;43.376;19.630;2022-12-08T15:53:38;49.00;;;32.85;;
59038;SDS011;44824;43.376;19.630;2022-12-08T16:02:19;41.78;;;27.05;;
59038;SDS011;44824;43.376;19.630;2022-12-08T16:04:51;54.08;;;35.60;;
59038;SDS011;44824;43.376;19.630;2022-12-08T16:13:19;88.10;;;55.97;;
59038;SDS011;44824;43.376;19.630;2022-12-08T16:21:47;33.90;;;22.70;;
59038;SDS011;44824;43.376;19.630;2022-12-08T16:24:28;42.08;;;29.48;;
59038;SDS011;44824;43.376;19.630;2022-12-08T16:26:54;42.88;;;31.85;;
59038;SDS011;44824;43.376;19.630;2022-12-08T16:29:20;45.83;;;29.90;;
59038;SDS011;44824;43.376;19.630;2022-12-08T16:31:46;39.95;;;28.58;;
59038;SDS011;44824;43.376;19.630;2022-12-08T16:34:13;36.13;;;26.30;;
59038;SDS011;44824;43.376;19.630;2022-12-08T16:36:39;32.45;;;22.35;;
59038;SDS011;44824;43.376;19.630;2022-12-08T16:39:09;32.70;;;21.75;;
59038;SDS011;44824;43.376;19.630;2022-12-08T16:41:40;38.95;;;27.65;;
59038;SDS011;44824;43.376;19.630;2022-12-08T16:44:24;31.80;;;20.10;;
59038;SDS011;44824;43.376;19.630;2022-12-08T16:46:50;30.58;;;21.13;;
59038;SDS011;44824;43.376;19.630;2022-12-08T16:49:29;35.20;;;25.42;;
59038;SDS011;44824;43.376;19.630;2022-12-08T16:54:23;27.98;;;19.77;;
59038;SDS011;44824;43.376;19.630;2022-12-08T16:56:49;37.58;;;26.13;;
59038;SDS011;44824;43.376;19.630;2022-12-08T16:59:15;36.10;;;24.13;;
59038;SDS011;44824;43.376;19.630;2022-12-08T17:01:41;37.13;;;25.67;;
59038;SDS011;44824;43.376;19.630;2022-12-08T17:04:07;41.10;;;29.02;;
59038;SDS011;44824;43.376;19.630;2022-12-08T17:15:52;76.55;;;51.00;;
59038;SDS011;44824;43.376;19.630;2022-12-08T17:18:27;114.47;;;71.28;;
59038;SDS011;44824;43.376;19.630;2022-12-08T17:21:00;48.88;;;33.03;;
59038;SDS011;44824;43.376;19.630;2022-12-08T17:23:26;49.25;;;35.88;;
59038;SDS011;44824;43.376;19.630;2022-12-08T17:25:58;54.70;;;37.00;;
59038;SDS011;44824;43.376;19.630;2022-12-08T17:28:41;72.60;;;49.40;;
59038;SDS011;44824;43.376;19.630;2022-12-08T17:31:08;68.80;;;46.13;;
59038;SDS011;44824;43.376;19.630;2022-12-08T17:36:19;82.38;;;58.55;;
59038;SDS011;44824;43.376;19.630;2022-12-08T17:50:09;68.20;;;47.63;;
59038;SDS011;44824;43.376;19.630;2022-12-08T17:52:35;49.75;;;35.92;;
59038;SDS011;44824;43.376;19.630;2022-12-08T17:55:08;55.05;;;40.92;;
59038;SDS011;44824;43.376;19.630;2022-12-08T17:57:34;64.18;;;46.75;;
59038;SDS011;44824;43.376;19.630;2022-12-08T18:00:00;74.32;;;56.58;;
59038;SDS011;44824;43.376;19.630;2022-12-08T18:02:29;119.10;;;91.38;;
59038;SDS011;44824;43.376;19.630;2022-12-08T18:04:59;126.35;;;92.78;;
59038;SDS011;44824;43.376;19.630;2022-12-08T18:22:16;75.75;;;48.58;;
59038;SDS011;44824;43.376;19.630;2022-12-08T18:24:42;69.47;;;46.58;;
59038;SDS011;44824;43.376;19.630;2022-12-08T18:27:08;68.93;;;50.28;;
59038;SDS011;44824;43.376;19.630;2022-12-08T18:29:34;66.88;;;48.47;;
59038;SDS011;44824;43.376;19.630;2022-12-08T18:32:00;90.90;;;59.55;;
59038;SDS011;44824;43.376;19.630;2022-12-08T18:34:26;70.43;;;50.13;;
59038;SDS011;44824;43.376;19.630;2022-12-08T18:36:53;89.05;;;58.33;;
59038;SDS011;44824;43.376;19.630;2022-12-08T18:42:22;84.45;;;56.80;;
59038;SDS011;44824;43.376;19.630;2022-12-08T18:44:49;70.80;;;49.63;;
59038;SDS011;44824;43.376;19.630;2022-12-08T18:47:16;68.22;;;47.13;;
59038;SDS011;44824;43.376;19.630;2022-12-08T18:49:42;67.13;;;45.03;;
59038;SDS011;44824;43.376;19.630;2022-12-08T18:52:23;70.28;;;47.95;;
59038;SDS011;44824;43.376;19.630;2022-12-08T18:54:49;70.90;;;45.40;;
59038;SDS011;44824;43.376;19.630;2022-12-08T18:57:25;59.38;;;41.45;;
59038;SDS011;44824;43.376;19.630;2022-12-08T18:59:51;57.30;;;42.58;;
59038;SDS011;44824;43.376;19.630;2022-12-08T19:02:26;50.15;;;34.25;;
59038;SDS011;44824;43.376;19.630;2022-12-08T19:04:54;52.17;;;36.33;;
59038;SDS011;44824;43.376;19.630;2022-12-08T19:07:20;63.97;;;44.72;;
59038;SDS011;44824;43.376;19.630;2022-12-08T19:09:52;57.88;;;42.15;;
59038;SDS011;44824;43.376;19.630;2022-12-08T19:12:20;77.75;;;56.60;;
59038;SDS011;44824;43.376;19.630;2022-12-08T19:14:46;63.25;;;46.78;;
59038;SDS011;44824;43.376;19.630;2022-12-08T19:17:12;80.32;;;58.72;;
59038;SDS011;44824;43.376;19.630;2022-12-08T19:19:38;84.57;;;59.42;;
59038;SDS011;44824;43.376;19.630;2022-12-08T19:22:13;95.20;;;68.80;;
59038;SDS011;44824;43.376;19.630;2022-12-08T19:24:42;96.75;;;70.00;;
59038;SDS011;44824;43.376;19.630;2022-12-08T19:27:15;100.82;;;72.20;;
59038;SDS011;44824;43.376;19.630;2022-12-08T19:29:42;100.35;;;68.35;;
59038;SDS011;44824;43.376;19.630;2022-12-08T19:32:08;89.55;;;65.03;;
59038;SDS011;44824;43.376;19.630;2022-12-08T19:34:36;93.72;;;68.00;;
59038;SDS011;44824;43.376;19.630;2022-12-08T19:37:06;99.00;;;67.40;;
59038;SDS011;44824;43.376;19.630;2022-12-08T19:39:36;97.13;;;68.45;;
59038;SDS011;44824;43.376;19.630;2022-12-08T19:42:20;102.80;;;74.25;;
59038;SDS011;44824;43.376;19.630;2022-12-08T19:45:12;95.57;;;67.78;;
59038;SDS011;44824;43.376;19.630;2022-12-08T19:50:23;101.60;;;71.32;;
59038;SDS011;44824;43.376;19.630;2022-12-08T19:53:12;103.05;;;75.32;;
59038;SDS011;44824;43.376;19.630;2022-12-08T19:55:38;97.75;;;70.47;;
59038;SDS011;44824;43.376;19.630;2022-12-08T19:58:05;94.47;;;66.88;;
59038;SDS011;44824;43.376;19.630;2022-12-08T20:00:32;102.10;;;74.20;;
59038;SDS011;44824;43.376;19.630;2022-12-08T20:02:59;93.10;;;68.10;;
59038;SDS011;44824;43.376;19.630;2022-12-08T20:07:52;122.15;;;75.75;;
59038;SDS011;44824;43.376;19.630;2022-12-08T20:13:27;110.93;;;77.40;;
59038;SDS011;44824;43.376;19.630;2022-12-08T20:16:07;87.32;;;61.30;;
59038;SDS011;44824;43.376;19.630;2022-12-08T20:18:34;121.68;;;82.38;;
59038;SDS011;44824;43.376;19.630;2022-12-08T20:21:00;141.38;;;85.95;;
59038;SDS011;44824;43.376;19.630;2022-12-08T20:23:26;126.85;;;83.70;;
59038;SDS011;44824;43.376;19.630;2022-12-08T20:25:53;135.73;;;84.15;;